Time;durP1;ratioP1;P1;durP2;ratioP2;P2;SDS_P1;SDS_P2;PMS_P1;PMS_P2;Temp;Humidity;BMP_temperature;BMP_pressure;BME280_temperature;BME280_humidity;BME280_pressure;Samples;Min_cycle;Max_cycle;Signal;HPM_P1;HPM_P2
2022/10/05 00:01:48;;;;;;;12.77;7.00;;;15.50;99.90;;;;;;5029533;28;20053;-78
2022/10/05 00:04:18;;;;;;;12.60;6.18;;;15.50;99.90;;;;;;5011701;28;20053;-77
2022/10/05 00:06:48;;;;;;;15.52;6.93;;;15.50;99.90;;;;;;5029230;28;20496;-79
2022/10/05 00:09:20;;;;;;;10.15;6.85;;;15.60;99.90;;;;;;5029427;28;20111;-78
2022/10/05 00:11:46;;;;;;;13.55;6.95;;;15.40;99.90;;;;;;5029079;28;20360;-79
2022/10/05 00:14:35;;;;;;;9.10;6.15;;;15.40;99.90;;;;;;5029274;28;20053;-76
2022/10/05 00:17:03;;;;;;;10.20;6.50;;;15.40;99.90;;;;;;5031183;28;20135;-77
2022/10/05 00:19:33;;;;;;;15.88;7.55;;;15.60;99.90;;;;;;5051889;28;20112;-78
2022/10/05 00:22:09;;;;;;;11.40;6.35;;;15.40;99.90;;;;;;5052379;28;20036;-79
2022/10/05 00:24:35;;;;;;;8.95;5.85;;;15.40;99.90;;;;;;5052900;28;20141;-83
2022/10/05 00:27:21;;;;;;;9.75;5.88;;;15.40;99.90;;;;;;5052805;28;20436;-80
2022/10/05 00:29:49;;;;;;;9.68;6.22;;;15.60;99.90;;;;;;5052980;28;20455;-79
2022/10/05 00:32:14;;;;;;;12.82;6.10;;;15.70;99.90;;;;;;5052470;28;20087;-78
2022/10/05 00:34:41;;;;;;;16.85;5.47;;;15.40;99.90;;;;;;5052189;28;20096;-79
2022/10/05 00:37:07;;;;;;;8.90;5.38;;;15.40;99.90;;;;;;5052384;28;20037;-77
2022/10/05 00:39:34;;;;;;;14.07;5.40;;;15.60;99.90;;;;;;5052083;28;20041;-77
2022/10/05 00:42:20;;;;;;;10.13;5.03;;;15.60;99.90;;;;;;5052101;28;20083;-78
2022/10/05 00:45:01;;;;;;;8.57;5.35;;;15.40;99.90;;;;;;5049665;28;20057;-78
2022/10/05 00:47:50;;;;;;;11.75;4.93;;;15.40;99.90;;;;;;5051806;28;20094;-77
2022/10/05 00:50:50;;;;;;;10.23;4.82;;;15.50;99.90;;;;;;5052036;28;20152;-78
2022/10/05 00:53:27;;;;;;;7.60;4.60;;;15.30;99.90;;;;;;5051522;28;20061;-76
2022/10/05 00:56:15;;;;;;;8.07;4.57;;;15.30;99.90;;;;;;5051721;28;20436;-77
2022/10/05 00:59:00;;;;;;;10.82;5.13;;;15.30;99.90;;;;;;5050119;28;20056;-77
2022/10/05 01:01:33;;;;;;;6.82;4.43;;;15.40;99.90;;;;;;5051783;28;20563;-77
2022/10/05 01:04:19;;;;;;;9.63;4.57;;;15.30;99.90;;;;;;5051490;28;20044;-79
2022/10/05 01:06:56;;;;;;;7.68;4.50;;;15.30;99.90;;;;;;5051838;28;20075;-78
2022/10/05 01:09:43;;;;;;;8.48;4.35;;;15.30;99.90;;;;;;5051157;28;20488;-76
2022/10/05 01:12:09;;;;;;;9.13;4.13;;;15.30;99.90;;;;;;5051566;28;20048;-79
2022/10/05 01:15:10;;;;;;;8.80;4.75;;;15.30;99.90;;;;;;5051306;28;20561;-76
2022/10/05 01:17:44;;;;;;;7.10;4.43;;;15.30;99.90;;;;;;4989609;28;20478;-76
2022/10/05 01:20:24;;;;;;;7.43;4.70;;;15.30;99.90;;;;;;4973976;28;20050;-77
2022/10/05 01:23:28;;;;;;;11.68;5.00;;;15.30;99.90;;;;;;4989746;28;20081;-80
2022/10/05 01:26:30;;;;;;;8.73;5.22;;;15.30;99.90;;;;;;4950350;29;20078;-79
2022/10/05 01:29:02;;;;;;;12.65;5.03;;;15.30;99.90;;;;;;4950571;28;20051;-81
2022/10/05 01:31:37;;;;;;;9.77;4.90;;;15.30;99.90;;;;;;4950752;29;20074;-78
2022/10/05 01:34:29;;;;;;;8.48;5.28;;;15.30;99.90;;;;;;4950942;29;20178;-78
2022/10/05 01:37:11;;;;;;;9.23;6.03;;;15.40;99.90;;;;;;5041760;22;20384;-78
2022/10/05 01:40:22;;;;;;;12.48;5.93;;;15.30;99.90;;;;;;5073300;28;20048;-80
2022/10/05 01:42:50;;;;;;;13.32;6.15;;;15.30;99.90;;;;;;5054777;28;20464;-79
2022/10/05 01:46:06;;;;;;;8.88;5.88;;;15.30;99.90;;;;;;5070987;28;20063;-77
2022/10/05 01:48:46;;;;;;;10.18;6.60;;;15.30;99.90;;;;;;5054462;28;20097;-80
2022/10/05 01:51:36;;;;;;;12.68;6.22;;;15.30;99.90;;;;;;5070208;28;20052;-79
2022/10/05 01:54:25;;;;;;;10.20;6.25;;;15.50;99.90;;;;;;5052572;28;20506;-78
2022/10/05 01:56:53;;;;;;;12.32;6.55;;;15.30;99.90;;;;;;5070152;28;20147;-80
2022/10/05 01:59:46;;;;;;;12.75;6.90;;;15.30;99.90;;;;;;5047553;28;20052;-79
2022/10/05 02:02:17;;;;;;;12.82;6.35;;;15.20;99.90;;;;;;5055594;28;20049;-79
2022/10/05 02:04:52;;;;;;;12.45;6.28;;;15.20;99.90;;;;;;5070485;28;20044;-80
2022/10/05 02:07:26;;;;;;;11.07;6.38;;;15.20;99.90;;;;;;5036045;28;20071;-78
2022/10/05 02:10:03;;;;;;;10.13;5.90;;;15.30;99.90;;;;;;5070596;28;20131;-78
2022/10/05 02:12:33;;;;;;;12.00;6.80;;;15.10;99.90;;;;;;5070429;28;20056;-77
2022/10/05 02:15:09;;;;;;;11.13;6.30;;;15.10;99.90;;;;;;5070343;28;20041;-79
2022/10/05 02:17:41;;;;;;;9.45;6.18;;;15.10;99.90;;;;;;5052673;28;20055;-76
2022/10/05 02:20:13;;;;;;;9.48;6.50;;;15.20;99.90;;;;;;5070574;28;20051;-76
2022/10/05 02:22:47;;;;;;;7.70;5.80;;;15.30;99.90;;;;;;5070258;28;20396;-77
2022/10/05 02:25:19;;;;;;;10.57;6.63;;;15.30;99.90;;;;;;5070041;28;20495;-77
2022/10/05 02:27:50;;;;;;;11.75;6.55;;;15.10;99.90;;;;;;5052029;28;20507;-77
2022/10/05 02:30:17;;;;;;;10.88;6.05;;;15.10;99.90;;;;;;5052255;28;20056;-78
2022/10/05 02:33:15;;;;;;;9.13;5.82;;;15.10;99.90;;;;;;5070207;28;20068;-78
2022/10/05 02:35:41;;;;;;;10.02;6.05;;;15.40;99.90;;;;;;5069385;28;20052;-80
2022/10/05 02:38:36;;;;;;;8.75;5.68;;;15.10;99.90;;;;;;5069683;28;20051;-79
2022/10/05 02:41:58;;;;;;;10.27;5.28;;;15.10;99.90;;;;;;5068428;28;20060;-78
2022/10/05 02:44:43;;;;;;;11.82;5.60;;;15.10;99.90;;;;;;5047820;28;20506;-76
2022/10/05 02:47:09;;;;;;;11.52;5.72;;;15.10;99.90;;;;;;5047011;28;20059;-73
2022/10/05 02:49:52;;;;;;;9.27;5.30;;;15.20;99.90;;;;;;5058318;28;20048;-77
2022/10/05 02:52:28;;;;;;;9.43;5.28;;;15.10;99.90;;;;;;5062599;28;20086;-80
2022/10/05 02:55:16;;;;;;;8.35;4.93;;;15.10;99.90;;;;;;5047305;28;20049;-79
2022/10/05 02:58:08;;;;;;;9.23;4.93;;;15.20;99.90;;;;;;5046991;28;20102;-78
2022/10/05 03:00:49;;;;;;;9.32;4.88;;;15.20;99.90;;;;;;5051884;28;20047;-78
2022/10/05 03:03:34;;;;;;;10.52;5.32;;;15.20;99.90;;;;;;5050224;28;20621;-77
2022/10/05 03:06:05;;;;;;;7.22;4.65;;;15.20;99.90;;;;;;5048468;28;20056;-77
2022/10/05 03:08:59;;;;;;;8.82;4.75;;;15.20;99.90;;;;;;5049537;28;20064;-77
2022/10/05 03:11:47;;;;;;;10.90;4.70;;;15.20;99.90;;;;;;5046308;28;20053;-80
2022/10/05 03:14:20;;;;;;;8.30;4.78;;;15.20;99.90;;;;;;5049212;28;20052;-79
2022/10/05 03:17:07;;;;;;;10.93;4.97;;;15.10;99.90;;;;;;5051182;28;20040;-79
2022/10/05 03:19:54;;;;;;;8.20;4.60;;;15.20;99.90;;;;;;5069830;28;20087;-77
2022/10/05 03:22:38;;;;;;;8.60;4.22;;;15.20;99.90;;;;;;5085295;22;20083;-79
2022/10/05 03:26:01;;;;;;;7.78;4.60;;;15.10;99.90;;;;;;5051356;28;20053;-79
2022/10/05 03:29:16;;;;;;;8.15;3.88;;;15.20;99.90;;;;;;5051636;28;20048;-76
2022/10/05 03:31:52;;;;;;;8.90;4.35;;;15.50;99.90;;;;;;4894993;29;20623;-79
2022/10/05 03:34:51;;;;;;;6.93;4.07;;;15.20;99.90;;;;;;4910940;29;20079;-80
2022/10/05 03:37:27;;;;;;;6.43;3.65;;;15.10;99.90;;;;;;4909698;29;20651;-78
2022/10/05 03:40:01;;;;;;;9.77;4.00;;;15.10;99.90;;;;;;4911167;29;20130;-78
2022/10/05 03:42:38;;;;;;;6.88;4.07;;;15.20;99.90;;;;;;4895141;29;20141;-77
2022/10/05 03:45:21;;;;;;;12.40;4.03;;;15.20;99.90;;;;;;4876490;29;20131;-81
2022/10/05 03:48:13;;;;;;;7.47;3.60;;;15.10;99.90;;;;;;4876292;29;20425;-78
2022/10/05 03:50:39;;;;;;;7.05;3.53;;;14.90;99.90;;;;;;4909018;29;20067;-78
2022/10/05 03:53:24;;;;;;;7.82;4.05;;;15.10;99.90;;;;;;4910828;29;20051;-81
2022/10/05 03:56:15;;;;;;;8.55;4.07;;;15.50;99.90;;;;;;4914912;29;20093;-76
2022/10/05 03:58:47;;;;;;;5.15;3.40;;;15.10;99.90;;;;;;4898559;29;20056;-78
2022/10/05 04:01:20;;;;;;;8.25;3.72;;;15.10;99.90;;;;;;4914211;29;20071;-76
2022/10/05 04:04:02;;;;;;;8.82;3.70;;;15.10;99.90;;;;;;4898607;29;20410;-79
2022/10/05 04:06:49;;;;;;;7.78;3.70;;;15.10;99.90;;;;;;4914083;29;20614;-79
2022/10/05 04:09:51;;;;;;;8.05;4.25;;;15.10;99.90;;;;;;5066292;28;20528;-77
2022/10/05 04:12:33;;;;;;;7.15;4.03;;;15.10;99.90;;;;;;5013842;28;20053;-77
2022/10/05 04:15:07;;;;;;;;;;;15.00;99.90;;;;;;4997963;28;20528;-77
2022/10/05 04:17:43;;;;;;;10.73;4.15;;;15.00;99.90;;;;;;5010710;28;20379;-79
2022/10/05 04:20:32;;;;;;;7.28;4.35;;;15.00;99.90;;;;;;5010281;28;20057;-78
2022/10/05 04:23:17;;;;;;;7.55;4.50;;;15.00;99.90;;;;;;5020594;28;20575;-77
2022/10/05 04:25:53;;;;;;;9.02;4.30;;;15.00;99.90;;;;;;5018710;28;20092;-79
2022/10/05 04:28:55;;;;;;;7.03;4.57;;;15.00;99.90;;;;;;5008288;28;20042;-79
2022/10/05 04:32:06;;;;;;;12.60;4.63;;;15.00;99.90;;;;;;5010309;28;20140;-79
2022/10/05 04:34:57;;;;;;;9.40;4.50;;;15.00;99.90;;;;;;4939189;22;20078;-79
2022/10/05 04:37:34;;;;;;;9.95;5.18;;;15.00;99.90;;;;;;5064900;28;20491;-79
2022/10/05 04:40:41;;;;;;;7.30;4.70;;;15.00;99.90;;;;;;5072116;28;20044;-76
2022/10/05 04:43:26;;;;;;;7.85;4.90;;;15.00;99.90;;;;;;5029460;28;20598;-78
2022/10/05 04:46:29;;;;;;;9.55;5.30;;;15.00;99.90;;;;;;5057747;23;20044;-79
2022/10/05 04:49:49;;;;;;;7.95;4.97;;;14.90;99.90;;;;;;5090747;28;20052;-76
2022/10/05 04:52:38;;;;;;;11.93;5.22;;;14.90;99.90;;;;;;5042507;28;20151;-81
2022/10/05 04:55:38;;;;;;;9.15;5.75;;;14.90;99.90;;;;;;5092118;28;20052;-76
2022/10/05 04:58:29;;;;;;;10.02;5.68;;;15.00;99.90;;;;;;5087109;28;20048;-78
2022/10/05 05:01:24;;;;;;;9.52;6.20;;;14.90;99.90;;;;;;5071996;28;20052;-79
2022/10/05 05:04:27;;;;;;;11.70;6.47;;;14.90;99.90;;;;;;5071737;28;20497;-75
2022/10/05 05:07:17;;;;;;;9.73;6.47;;;14.90;99.90;;;;;;5071557;28;20049;-79
2022/10/05 05:10:18;;;;;;;10.68;6.45;;;14.80;99.90;;;;;;5070442;28;20060;-75
2022/10/05 05:12:56;;;;;;;9.93;6.40;;;14.90;99.90;;;;;;5070254;28;20064;-80
2022/10/05 05:15:47;;;;;;;10.32;6.85;;;14.80;99.90;;;;;;5071903;28;20460;-80
2022/10/05 05:18:40;;;;;;;12.40;6.65;;;14.80;99.90;;;;;;5091749;28;20040;-77
2022/10/05 05:21:26;;;;;;;10.63;7.03;;;14.80;99.90;;;;;;5090928;28;20046;-82
2022/10/05 05:24:04;;;;;;;10.63;6.93;;;14.80;99.90;;;;;;5090925;28;20051;-81
2022/10/05 05:26:32;;;;;;;12.63;6.32;;;14.80;99.90;;;;;;5091308;28;20055;-80
2022/10/05 05:29:13;;;;;;;11.27;6.55;;;14.80;99.90;;;;;;5090355;28;20116;-82
2022/10/05 05:31:45;;;;;;;11.35;7.18;;;14.80;99.90;;;;;;5090106;28;20406;-79
2022/10/05 05:34:46;;;;;;;14.77;7.28;;;14.80;99.90;;;;;;5071791;28;20123;-80
2022/10/05 05:37:12;;;;;;;10.05;6.90;;;14.80;99.90;;;;;;5069856;28;20044;-80
2022/10/05 05:40:03;;;;;;;11.27;6.97;;;14.90;99.90;;;;;;5071466;28;20225;-80
2022/10/05 05:42:41;;;;;;;13.88;6.85;;;14.80;99.90;;;;;;5070490;28;20044;-79
2022/10/05 05:45:33;;;;;;;9.07;5.95;;;14.70;99.90;;;;;;5071581;28;20044;-80
2022/10/05 05:48:04;;;;;;;10.40;6.85;;;14.70;99.90;;;;;;5091485;28;20056;-77
2022/10/05 05:50:40;;;;;;;9.88;6.72;;;14.70;99.90;;;;;;5078317;28;20116;-78
2022/10/05 05:53:18;;;;;;;11.65;6.90;;;14.80;99.90;;;;;;5109896;28;20134;-79
2022/10/05 05:55:54;;;;;;;19.40;6.78;;;14.70;99.90;;;;;;5111851;28;20492;-82
2022/10/05 05:58:24;;;;;;;8.35;6.05;;;14.70;99.90;;;;;;5111789;28;20051;-83
2022/10/05 06:01:22;;;;;;;13.35;6.65;;;14.70;99.90;;;;;;5093756;28;20479;-78
2022/10/05 06:04:13;;;;;;;10.18;6.53;;;14.70;99.90;;;;;;5088583;28;20071;-82
2022/10/05 06:06:44;;;;;;;11.43;6.70;;;14.80;99.90;;;;;;5071060;28;20044;-80
2022/10/05 06:09:29;;;;;;;10.02;6.50;;;14.90;99.90;;;;;;5073982;28;20058;-80
2022/10/05 06:12:01;;;;;;;11.27;6.97;;;14.70;99.90;;;;;;5067842;28;20059;-76
2022/10/05 06:14:58;;;;;;;11.75;6.90;;;14.70;99.90;;;;;;5067084;28;20511;-82
2022/10/05 06:17:45;;;;;;;11.13;6.63;;;14.70;99.90;;;;;;5008489;28;20181;-79
2022/10/05 06:20:29;;;;;;;8.80;6.28;;;14.70;99.90;;;;;;4991918;28;20198;-78
2022/10/05 06:23:01;;;;;;;11.68;6.53;;;14.70;99.90;;;;;;5007873;28;20045;-83
2022/10/05 06:25:41;;;;;;;12.57;6.07;;;14.70;99.90;;;;;;5008196;28;20046;-80
2022/10/05 06:28:09;;;;;;;13.23;6.60;;;14.70;99.90;;;;;;5007782;28;20141;-79
2022/10/05 06:31:04;;;;;;;9.63;6.20;;;14.70;99.90;;;;;;5007481;28;20061;-76
2022/10/05 06:33:52;;;;;;;9.65;6.07;;;14.70;99.90;;;;;;4985103;28;20579;-79
2022/10/05 06:36:33;;;;;;;9.75;5.57;;;14.70;99.90;;;;;;5007780;28;20050;-78
2022/10/05 06:39:12;;;;;;;11.73;6.20;;;14.70;99.90;;;;;;5007163;28;20050;-79
2022/10/05 06:41:59;;;;;;;11.88;6.32;;;14.80;99.90;;;;;;5007722;28;20050;-79
2022/10/05 06:44:27;;;;;;;12.50;6.28;;;15.00;99.90;;;;;;5007371;28;20132;-78
2022/10/05 06:47:28;;;;;;;11.23;6.00;;;14.80;99.90;;;;;;4990928;28;20053;-80
2022/10/05 06:50:19;;;;;;;13.32;6.75;;;14.80;99.90;;;;;;4991048;28;20058;-77
2022/10/05 06:53:04;;;;;;;11.82;6.30;;;14.80;99.90;;;;;;5008668;28;20095;-80
2022/10/05 06:55:37;;;;;;;8.07;5.30;;;14.80;99.90;;;;;;4993820;28;20049;-77
2022/10/05 06:58:15;;;;;;;10.05;6.45;;;14.80;99.90;;;;;;5026997;28;20167;-77
2022/10/05 07:00:45;;;;;;;10.63;5.53;;;14.80;99.90;;;;;;5027351;28;20122;-78
2022/10/05 07:03:29;;;;;;;10.85;5.55;;;14.80;99.90;;;;;;5018664;28;20115;-79
2022/10/05 07:06:15;;;;;;;11.98;6.25;;;14.80;99.90;;;;;;5007211;28;20054;-80
2022/10/05 07:09:17;;;;;;;11.55;6.85;;;14.80;99.90;;;;;;5007290;28;20045;-77
2022/10/05 07:12:01;;;;;;;10.15;5.57;;;14.80;99.90;;;;;;4990271;28;20088;-79
2022/10/05 07:15:05;;;;;;;9.73;5.53;;;14.80;99.90;;;;;;5007322;28;20050;-80
2022/10/05 07:17:50;;;;;;;8.68;4.90;;;14.80;99.90;;;;;;5006671;28;20068;-80
2022/10/05 07:20:34;;;;;;;8.00;4.80;;;14.80;99.90;;;;;;5017146;28;20052;-78
2022/10/05 07:23:11;;;;;;;7.60;4.80;;;14.80;99.90;;;;;;5026982;28;20136;-81
2022/10/05 07:25:54;;;;;;;8.85;5.00;;;14.90;99.90;;;;;;5026485;28;20048;-81
2022/10/05 07:28:34;;;;;;;9.10;4.53;;;14.90;99.90;;;;;;5026865;28;20049;-79
2022/10/05 07:31:08;;;;;;;11.57;4.53;;;14.80;99.90;;;;;;5089113;28;20519;-77
2022/10/05 07:33:58;;;;;;;9.85;5.00;;;14.90;99.90;;;;;;5089698;28;20056;-78
2022/10/05 07:39:31;;;;;;;9.07;3.92;;;14.90;99.90;;;;;;5101046;28;20100;-77
2022/10/05 07:42:39;;;;;;;9.13;4.30;;;15.00;99.90;;;;;;5109778;28;20059;-81
2022/10/05 07:45:44;;;;;;;6.38;3.55;;;15.00;99.90;;;;;;5104857;28;20059;-80
2022/10/05 07:48:32;;;;;;;5.30;3.88;;;15.00;99.90;;;;;;5089305;28;20206;-77
2022/10/05 07:51:22;;;;;;;4.75;3.50;;;15.10;99.90;;;;;;5097673;28;20040;-77
2022/10/05 07:54:18;;;;;;;7.45;3.30;;;15.10;99.90;;;;;;5109605;28;20083;-77
2022/10/05 07:56:45;;;;;;;;;;;15.10;99.90;;;;;;5110323;28;20058;-78
2022/10/05 07:59:29;;;;;;;6.70;3.20;;;15.30;99.90;;;;;;5104178;28;19923;-77
2022/10/05 08:02:05;;;;;;;4.68;2.70;;;15.10;99.90;;;;;;5089239;28;20840;-78
2022/10/05 08:04:44;;;;;;;4.00;2.55;;;15.20;99.90;;;;;;5089524;28;20040;-76
2022/10/05 08:07:15;;;;;;;5.85;2.50;;;15.20;99.90;;;;;;5070990;28;20036;-75
2022/10/05 08:10:12;;;;;;;3.47;2.10;;;15.20;99.90;;;;;;5070847;28;20401;-77
2022/10/05 08:13:18;;;;;;;3.85;1.90;;;15.20;99.90;;;;;;5088679;28;20040;-78
2022/10/05 08:16:00;;;;;;;3.45;1.80;;;15.20;99.90;;;;;;5090085;28;20577;-80
2022/10/05 08:18:39;;;;;;;3.67;1.90;;;15.30;99.90;;;;;;5109372;28;20371;-83
2022/10/05 08:21:10;;;;;;;2.70;1.50;;;15.30;99.90;;;;;;5109684;28;20078;-81
2022/10/05 08:23:46;;;;;;;4.63;1.73;;;15.50;99.90;;;;;;5083293;28;20747;-81
2022/10/05 08:26:31;;;;;;;4.85;1.42;;;15.40;99.90;;;;;;5090087;28;20101;-77
2022/10/05 08:29:03;;;;;;;;;;;15.40;99.90;;;;;;5088828;28;20075;-78
2022/10/05 08:31:36;;;;;;;3.85;1.45;;;15.50;99.90;;;;;;5088899;28;19920;-75
2022/10/05 08:34:10;;;;;;;4.65;1.90;;;15.60;99.90;;;;;;5088932;28;20753;-77
2022/10/05 08:36:38;;;;;;;8.88;2.67;;;15.60;99.90;;;;;;5088959;28;20048;-79
2022/10/05 08:39:13;;;;;;;4.15;1.58;;;15.60;99.90;;;;;;5057342;28;20501;-80
2022/10/05 08:41:45;;;;;;;4.20;1.52;;;15.70;99.90;;;;;;5092437;28;20123;-79
2022/10/05 08:44:48;;;;;;;3.30;1.70;;;15.70;99.90;;;;;;5092026;28;20059;-79
2022/10/05 08:47:44;;;;;;;4.30;1.98;;;15.80;99.90;;;;;;5083485;28;20542;-76
2022/10/05 08:50:28;;;;;;;3.55;1.80;;;15.80;99.90;;;;;;5072056;28;20392;-79
2022/10/05 08:52:59;;;;;;;2.95;1.80;;;15.90;99.90;;;;;;5053979;28;20055;-79
2022/10/05 08:55:33;;;;;;;4.40;2.20;;;16.00;99.90;;;;;;5054077;28;20044;-78
2022/10/05 08:58:12;;;;;;;4.35;2.40;;;16.00;99.90;;;;;;5053992;28;20127;-80
2022/10/05 09:01:03;;;;;;;3.63;2.08;;;16.00;99.90;;;;;;5071623;28;20083;-79
2022/10/05 09:04:02;;;;;;;5.40;2.40;;;16.00;99.90;;;;;;5072511;28;20451;-83
2022/10/05 09:06:52;;;;;;;4.18;2.38;;;16.10;99.90;;;;;;5072054;28;20093;-76
2022/10/05 09:09:29;;;;;;;6.35;2.55;;;16.20;99.90;;;;;;5087579;28;20040;-80
2022/10/05 09:12:26;;;;;;;6.43;2.70;;;16.30;99.90;;;;;;5092141;28;20039;-80
2022/10/05 09:15:16;;;;;;;7.00;3.05;;;16.30;99.90;;;;;;5091891;28;20047;-79
2022/10/05 09:18:25;;;;;;;6.00;2.70;;;16.40;99.90;;;;;;5090066;28;20051;-82
2022/10/05 09:20:53;;;;;;;4.85;2.67;;;16.40;99.90;;;;;;5084189;28;20059;-83
2022/10/05 09:23:38;;;;;;;7.15;3.05;;;16.50;99.90;;;;;;5053516;28;20044;-78
2022/10/05 09:26:22;;;;;;;;;;;16.50;99.90;;;;;;5084138;28;20052;-79
2022/10/05 09:28:54;;;;;;;12.23;3.33;;;16.50;99.90;;;;;;5091949;28;19931;-78
2022/10/05 09:31:28;;;;;;;7.55;3.72;;;16.50;99.90;;;;;;5091313;28;20055;-83
2022/10/05 09:34:29;;;;;;;5.65;3.30;;;16.50;99.90;;;;;;5091552;28;20139;-77
2022/10/05 09:37:21;;;;;;;8.10;3.13;;;16.60;99.90;;;;;;5091374;28;20093;-80
2022/10/05 09:40:15;;;;;;;9.00;2.97;;;16.70;99.90;;;;;;5056141;28;20083;-78
2022/10/05 09:42:56;;;;;;;7.45;3.53;;;16.80;99.90;;;;;;5073333;28;20063;-78
2022/10/05 09:45:44;;;;;;;7.32;3.17;;;16.90;99.90;;;;;;5067167;28;20055;-80
2022/10/05 09:48:31;;;;;;;5.38;3.08;;;16.90;99.90;;;;;;5036632;28;20057;-75
2022/10/05 09:51:11;;;;;;;9.82;3.33;;;16.90;99.90;;;;;;5050566;28;20496;-83
2022/10/05 09:54:15;;;;;;;8.23;3.25;;;16.90;99.90;;;;;;5031911;28;20045;-79
2022/10/05 09:57:09;;;;;;;8.65;3.30;;;17.00;99.90;;;;;;5049027;28;20522;-78
2022/10/05 09:59:59;;;;;;;6.40;2.90;;;17.00;99.90;;;;;;5050270;28;20064;-83
2022/10/05 10:02:44;;;;;;;5.55;3.20;;;17.00;99.90;;;;;;5050120;28;20060;-77
2022/10/05 10:05:30;;;;;;;6.97;2.83;;;17.10;99.90;;;;;;5050488;28;20045;-78
2022/10/05 10:08:14;;;;;;;4.47;2.50;;;17.00;99.90;;;;;;5050292;28;20500;-82
2022/10/05 10:10:51;;;;;;;5.55;2.83;;;17.00;99.90;;;;;;5050652;28;20045;-77
2022/10/05 10:13:41;;;;;;;9.23;2.60;;;17.10;99.90;;;;;;5050278;28;20059;-78
2022/10/05 10:16:44;;;;;;;7.18;2.67;;;17.00;99.90;;;;;;5050093;28;20037;-79
2022/10/05 10:19:34;;;;;;;6.35;2.65;;;16.90;99.90;;;;;;5049558;28;20053;-77
2022/10/05 10:22:26;;;;;;;6.05;2.72;;;16.90;99.90;;;;;;5049176;28;20061;-81
2022/10/05 10:25:30;;;;;;;7.20;2.42;;;16.90;99.90;;;;;;5050116;28;20044;-79
2022/10/05 10:28:05;;;;;;;6.05;2.50;;;16.90;99.90;;;;;;5049047;28;20060;-80
2022/10/05 10:30:54;;;;;;;5.35;2.75;;;16.80;99.90;;;;;;5050320;28;20041;-82
2022/10/05 10:33:45;;;;;;;4.22;2.60;;;16.80;99.90;;;;;;5049809;28;20384;-78
2022/10/05 10:36:42;;;;;;;5.57;2.85;;;16.80;99.90;;;;;;5050469;28;20059;-83
2022/10/05 10:39:18;;;;;;;6.53;2.70;;;16.70;99.90;;;;;;5031765;28;20045;-78
2022/10/05 10:41:51;;;;;;;6.05;2.58;;;16.60;99.90;;;;;;5049800;28;20056;-81
2022/10/05 10:44:38;;;;;;;5.40;2.70;;;16.60;99.90;;;;;;5050014;28;20045;-80
2022/10/05 10:47:23;;;;;;;7.57;2.70;;;16.60;99.90;;;;;;5057538;28;20060;-79
2022/10/05 10:50:27;;;;;;;5.88;3.40;;;16.50;99.90;;;;;;5069258;28;20052;-77
2022/10/05 10:53:17;;;;;;;4.70;2.65;;;16.50;99.90;;;;;;5072758;28;20393;-82
2022/10/05 10:56:07;;;;;;;10.10;3.08;;;16.50;99.90;;;;;;5072056;28;20044;-82
2022/10/05 10:59:07;;;;;;;8.10;2.75;;;16.50;99.90;;;;;;5054884;28;20051;-79
2022/10/05 11:02:00;;;;;;;4.82;2.70;;;16.50;99.90;;;;;;5055313;28;20444;-82
2022/10/05 11:04:31;;;;;;;6.97;2.78;;;16.50;99.90;;;;;;5090458;28;20132;-80
2022/10/05 11:06:57;;;;;;;6.53;2.85;;;16.50;99.90;;;;;;5071756;28;20101;-84
2022/10/05 11:09:44;;;;;;;5.55;3.05;;;16.50;99.90;;;;;;5090853;28;20047;-80
2022/10/05 11:12:35;;;;;;;4.90;2.80;;;16.50;99.90;;;;;;5091153;28;20040;-82
2022/10/05 11:15:26;;;;;;;5.82;3.13;;;16.40;99.90;;;;;;5076652;28;20055;-86
2022/10/05 11:18:14;;;;;;;6.30;2.88;;;16.40;99.90;;;;;;5094178;28;20105;-78
2022/10/05 11:21:35;;;;;;;6.03;2.70;;;16.40;99.90;;;;;;5072656;28;20051;-77
2022/10/05 11:24:21;;;;;;;4.97;2.70;;;16.40;99.90;;;;;;5027362;28;20546;-81
2022/10/05 11:26:49;;;;;;;10.05;2.90;;;16.50;99.90;;;;;;5001669;28;20970;-85
2022/10/05 11:29:48;;;;;;;6.70;3.22;;;16.40;99.90;;;;;;5005342;28;20504;-82
2022/10/05 11:32:44;;;;;;;5.38;2.95;;;16.40;99.90;;;;;;4969441;28;20777;-80
2022/10/05 11:35:35;;;;;;;7.22;3.00;;;16.40;99.90;;;;;;4968716;28;20134;-81
2022/10/05 11:38:27;;;;;;;4.95;2.95;;;16.40;99.90;;;;;;4952078;28;20053;-88
2022/10/05 11:41:17;;;;;;;5.25;2.65;;;16.30;99.90;;;;;;4968474;28;20429;-82
2022/10/05 11:43:46;;;;;;;4.68;2.92;;;16.40;99.90;;;;;;4952477;28;20051;-80
2022/10/05 11:46:19;;;;;;;4.50;2.67;;;16.50;99.90;;;;;;4968249;28;20054;-82
2022/10/05 11:48:54;;;;;;;4.07;2.85;;;16.30;99.90;;;;;;4968209;28;20050;-78
2022/10/05 11:51:43;;;;;;;7.10;2.88;;;16.30;99.90;;;;;;4987115;28;20216;-79
2022/10/05 11:54:08;;;;;;;6.78;2.85;;;16.30;99.90;;;;;;4987157;28;20137;-78
2022/10/05 11:56:57;;;;;;;4.00;2.58;;;16.30;99.90;;;;;;4956070;28;20053;-79
2022/10/05 11:59:44;;;;;;;3.10;2.38;;;16.30;99.90;;;;;;4982623;28;20056;-82
2022/10/05 12:02:22;;;;;;;6.38;2.90;;;16.30;99.90;;;;;;5008134;28;20576;-79
2022/10/05 12:05:26;;;;;;;5.03;2.30;;;16.30;99.90;;;;;;5008140;28;20454;-79
2022/10/05 12:08:27;;;;;;;3.28;2.25;;;16.30;99.90;;;;;;5008979;28;20060;-77
2022/10/05 12:11:27;;;;;;;4.85;2.58;;;16.30;99.90;;;;;;5050371;28;20095;-81
2022/10/05 12:14:06;;;;;;;4.60;2.38;;;16.30;99.90;;;;;;5053377;28;20079;-81
2022/10/05 12:16:35;;;;;;;5.95;2.30;;;16.30;99.90;;;;;;5066768;28;20040;-79
2022/10/05 12:19:24;;;;;;;10.43;2.63;;;16.70;99.90;;;;;;5055181;28;20052;-83
2022/10/05 12:22:14;;;;;;;6.20;2.50;;;16.40;99.90;;;;;;5073517;28;20059;-80
2022/10/05 12:25:06;;;;;;;7.70;3.40;;;16.40;99.90;;;;;;5054957;28;20093;-81
2022/10/05 12:27:39;;;;;;;6.72;2.88;;;16.40;99.90;;;;;;5010636;28;20057;-82
2022/10/05 12:30:17;;;;;;;9.43;3.47;;;16.40;99.90;;;;;;5010599;28;20527;-85
2022/10/05 12:33:07;;;;;;;7.70;2.50;;;16.50;99.90;;;;;;5010409;28;20115;-81
2022/10/05 12:35:51;;;;;;;7.50;3.20;;;16.40;99.90;;;;;;5010504;28;20057;-85
2022/10/05 12:38:31;;;;;;;6.13;2.72;;;16.40;99.90;;;;;;5011138;28;20062;-86
2022/10/05 12:40:59;;;;;;;6.72;2.63;;;16.40;99.90;;;;;;5011711;28;20046;-82
2022/10/05 12:43:54;;;;;;;8.23;3.60;;;16.50;99.90;;;;;;5009850;28;20080;-82
2022/10/05 12:46:56;;;;;;;5.55;3.22;;;16.40;99.90;;;;;;5031450;28;20100;-89
2022/10/05 12:49:46;;;;;;;5.35;2.97;;;16.40;99.90;;;;;;4976932;28;20413;-86
2022/10/05 12:52:38;;;;;;;8.38;3.10;;;16.40;99.90;;;;;;4972447;28;20062;-85
2022/10/05 12:55:29;;;;;;;7.55;3.47;;;16.40;99.90;;;;;;4956342;28;20074;-77
2022/10/05 12:58:15;;;;;;;8.32;3.67;;;16.40;99.90;;;;;;4954890;28;20513;-82
2022/10/05 13:00:56;;;;;;;5.32;3.33;;;16.40;99.90;;;;;;4954649;28;20110;-81
2022/10/05 13:03:35;;;;;;;7.55;3.10;;;16.40;99.90;;;;;;4970792;28;20043;-79
2022/10/05 13:06:35;;;;;;;11.73;3.17;;;16.30;99.90;;;;;;5005133;28;20128;-75
2022/10/05 13:09:17;;;;;;;9.68;3.35;;;16.40;99.90;;;;;;5008649;28;20057;-75
2022/10/05 13:11:50;;;;;;;5.82;3.33;;;16.40;99.90;;;;;;5018123;28;20078;-80
2022/10/05 13:14:34;;;;;;;5.50;2.95;;;16.40;99.90;;;;;;5009953;28;20062;-84
2022/10/05 13:17:12;;;;;;;6.22;3.13;;;16.50;99.90;;;;;;4993064;28;20045;-79
2022/10/05 13:19:44;;;;;;;5.15;3.22;;;16.50;99.90;;;;;;5009525;28;20061;-80
2022/10/05 13:22:26;;;;;;;4.15;2.78;;;16.50;99.90;;;;;;5009287;28;20076;-78
2022/10/05 13:25:03;;;;;;;7.13;2.70;;;16.50;99.90;;;;;;5009064;28;20168;-78
2022/10/05 13:27:34;;;;;;;7.68;3.22;;;16.50;99.90;;;;;;5067900;28;20103;-76
2022/10/05 13:30:13;;;;;;;4.05;2.55;;;16.60;99.90;;;;;;5071688;28;20442;-79
2022/10/05 13:32:52;;;;;;;15.57;3.28;;;16.60;99.90;;;;;;5052767;28;20506;-83
2022/10/05 13:36:06;;;;;;;6.78;3.40;;;16.60;99.90;;;;;;5071566;28;20048;-80
2022/10/05 13:38:40;;;;;;;5.10;2.88;;;16.70;99.90;;;;;;5008971;28;20073;-80
2022/10/05 13:41:23;;;;;;;6.75;3.30;;;16.60;99.90;;;;;;5009151;28;20416;-80
2022/10/05 13:44:06;;;;;;;6.53;3.22;;;16.70;99.90;;;;;;4992353;28;20053;-78
2022/10/05 13:47:00;;;;;;;8.52;3.60;;;16.70;99.90;;;;;;5009329;28;20062;-78
2022/10/05 13:50:08;;;;;;;6.40;3.15;;;16.80;99.90;;;;;;5008948;28;20635;-77
2022/10/05 13:53:23;;;;;;;4.50;2.70;;;16.90;99.90;;;;;;4950626;29;20519;-79
2022/10/05 13:55:59;;;;;;;7.22;3.65;;;16.90;99.90;;;;;;4877822;29;20120;-78
2022/10/05 13:58:46;;;;;;;4.65;2.83;;;17.00;99.90;;;;;;4893200;29;20208;-75
2022/10/05 14:01:33;;;;;;;5.40;2.80;;;17.00;99.90;;;;;;4893524;29;20088;-75
2022/10/05 14:04:23;;;;;;;6.30;2.67;;;17.00;99.90;;;;;;4877862;29;20247;-80
2022/10/05 14:06:53;;;;;;;6.72;2.97;;;17.10;99.90;;;;;;4877953;29;20071;-77
2022/10/05 14:09:18;;;;;;;4.72;2.67;;;17.40;99.90;;;;;;4893549;29;20464;-78
2022/10/05 14:11:50;;;;;;;5.75;2.83;;;17.20;99.90;;;;;;4893743;29;20048;-85
2022/10/05 14:14:24;;;;;;;4.20;2.47;;;17.40;99.90;;;;;;4885450;29;20143;-76
2022/10/05 14:17:04;;;;;;;7.43;2.78;;;17.30;99.90;;;;;;4931635;29;20098;-82